Time;durP1;ratioP1;P1;durP2;ratioP2;P2;SDS_P1;SDS_P2;PMS_P1;PMS_P2;Temp;Humidity;BMP_temperature;BMP_pressure;BME280_temperature;BME280_humidity;BME280_pressure;Samples;Min_cycle;Max_cycle;Signal;HPM_P1;HPM_P2
2023/02/18 00:02:25;;;;;;;37.00;25.17;;;12.50;99.90;;;;;;5052784;28;20509;-80
2023/02/18 00:04:53;;;;;;;35.30;24.43;;;12.50;99.90;;;;;;5053298;28;20222;-80
2023/02/18 00:07:19;;;;;;;32.00;25.10;;;12.50;99.90;;;;;;5051962;28;20179;-80
2023/02/18 00:09:44;;;;;;;39.57;27.47;;;12.40;99.90;;;;;;5047074;28;20441;-80
2023/02/18 00:12:10;;;;;;;36.13;25.23;;;12.50;99.90;;;;;;5040313;28;20513;-82
2023/02/18 00:14:36;;;;;;;36.50;27.00;;;12.50;99.90;;;;;;5041509;28;20180;-80
2023/02/18 00:17:02;;;;;;;32.83;26.60;;;12.40;99.90;;;;;;5043444;28;20187;-86
2023/02/18 00:19:28;;;;;;;36.43;25.80;;;12.40;99.90;;;;;;5045044;28;20512;-82
2023/02/18 00:21:53;;;;;;;35.40;25.30;;;12.50;99.90;;;;;;5041677;28;20650;-84
2023/02/18 00:24:19;;;;;;;38.93;26.87;;;12.50;99.90;;;;;;5039153;28;20218;-82
2023/02/18 00:26:44;;;;;;;38.30;25.53;;;12.50;99.90;;;;;;5036991;28;20507;-80
2023/02/18 00:29:10;;;;;;;36.70;27.30;;;12.50;99.90;;;;;;5035721;28;20187;-89
2023/02/18 00:31:37;;;;;;;38.00;26.10;;;12.50;99.90;;;;;;5041594;28;20227;-85
2023/02/18 00:34:04;;;;;;;44.23;25.57;;;12.40;99.90;;;;;;5031900;28;20544;-81
2023/02/18 00:36:30;;;;;;;38.87;26.67;;;12.50;99.90;;;;;;5044789;28;20495;-85
2023/02/18 00:38:58;;;;;;;34.10;23.97;;;12.40;99.90;;;;;;5048387;28;20935;-86
2023/02/18 00:41:26;;;;;;;37.77;25.17;;;12.50;99.90;;;;;;5041701;28;20284;-80
2023/02/18 00:43:52;;;;;;;34.97;24.70;;;12.40;99.90;;;;;;5042791;28;20477;-86
2023/02/18 00:46:17;;;;;;;37.77;26.10;;;12.40;99.90;;;;;;5044225;28;20437;-82
2023/02/18 00:48:43;;;;;;;43.23;26.90;;;12.40;99.90;;;;;;5047154;28;20206;-81
2023/02/18 00:51:09;;;;;;;39.53;25.97;;;12.30;99.90;;;;;;5038901;28;20187;-82
2023/02/18 00:53:35;;;;;;;37.60;24.90;;;12.20;99.90;;;;;;5036914;28;20202;-81
2023/02/18 00:56:00;;;;;;;35.20;25.30;;;12.30;99.90;;;;;;5040793;28;20445;-83
2023/02/18 00:58:26;;;;;;;39.10;25.83;;;12.40;99.90;;;;;;5044084;28;20171;-83
2023/02/18 01:00:53;;;;;;;35.60;25.27;;;12.40;99.90;;;;;;5047005;28;20183;-83
2023/02/18 01:03:19;;;;;;;40.70;25.90;;;12.40;99.90;;;;;;5040333;28;20179;-86
2023/02/18 01:05:45;;;;;;;39.90;26.30;;;12.40;99.90;;;;;;5036337;28;20465;-77
2023/02/18 01:08:11;;;;;;;40.33;27.10;;;12.40;99.90;;;;;;5038651;28;20508;-77
2023/02/18 01:10:40;;;;;;;41.33;28.60;;;12.30;99.90;;;;;;5043803;28;20183;-77
2023/02/18 01:13:06;;;;;;;38.20;26.20;;;12.40;99.90;;;;;;5041001;28;20791;-77
2023/02/18 01:15:32;;;;;;;38.50;26.33;;;12.40;99.90;;;;;;5040211;28;20426;-77
2023/02/18 01:17:58;;;;;;;35.10;24.87;;;12.30;99.90;;;;;;5036566;28;21053;-77
2023/02/18 01:20:24;;;;;;;37.43;24.93;;;12.20;99.90;;;;;;5034487;28;20193;-78
2023/02/18 01:22:50;;;;;;;35.17;23.80;;;12.20;99.90;;;;;;5041633;28;20516;-78
2023/02/18 01:25:15;;;;;;;36.10;24.70;;;12.20;99.90;;;;;;5049960;28;20581;-78
2023/02/18 01:27:41;;;;;;;38.10;24.83;;;12.20;99.90;;;;;;5049503;28;20187;-77
2023/02/18 01:30:09;;;;;;;35.23;23.27;;;12.20;99.90;;;;;;5047501;28;20187;-81
2023/02/18 01:32:35;;;;;;;37.53;22.83;;;12.30;99.90;;;;;;5046013;28;20620;-83
2023/02/18 01:35:02;;;;;;;35.27;22.67;;;12.20;99.90;;;;;;5044987;28;20528;-83
2023/02/18 01:37:28;;;;;;;33.70;22.80;;;12.30;99.90;;;;;;5044167;28;20183;-81
2023/02/18 01:39:54;;;;;;;29.97;20.63;;;12.40;99.90;;;;;;5041656;28;20432;-78
2023/02/18 01:42:22;;;;;;;30.10;20.20;;;12.40;99.90;;;;;;5040871;28;20190;-78
2023/02/18 01:44:48;;;;;;;34.10;20.43;;;12.30;99.90;;;;;;5044930;28;20218;-77
2023/02/18 01:47:15;;;;;;;33.40;21.23;;;12.20;99.90;;;;;;5048193;28;20455;-79
2023/02/18 01:49:44;;;;;;;33.73;22.20;;;12.20;99.90;;;;;;5050157;28;20511;-79
2023/02/18 01:52:21;;;;;;;34.13;22.23;;;12.20;99.90;;;;;;5052359;28;20429;-81
2023/02/18 01:54:50;;;;;;;31.37;19.90;;;12.40;99.90;;;;;;5049362;28;20442;-80
2023/02/18 01:57:31;;;;;;;33.20;19.57;;;12.40;99.90;;;;;;5035654;28;20803;-81
2023/02/18 02:00:02;;;;;;;27.23;19.77;;;12.30;99.90;;;;;;5037742;28;20812;-85
2023/02/18 02:02:31;;;;;;;31.60;21.53;;;12.20;99.90;;;;;;5039582;28;20430;-81
2023/02/18 02:04:57;;;;;;;35.93;20.70;;;12.20;99.90;;;;;;5042896;28;20532;-81
2023/02/18 02:07:24;;;;;;;29.97;20.23;;;12.30;99.90;;;;;;5042282;28;20437;-82
2023/02/18 02:09:53;;;;;;;28.33;19.90;;;12.20;99.90;;;;;;5040577;28;20429;-81
2023/02/18 02:12:40;;;;;;;28.47;18.90;;;12.20;99.90;;;;;;5039098;28;20520;-82
2023/02/18 02:15:38;;;;;;;32.10;19.40;;;12.20;99.90;;;;;;5035681;28;20438;-81
2023/02/18 02:18:31;;;;;;;35.20;18.40;;;12.20;99.90;;;;;;5034003;28;20549;-81
2023/02/18 02:21:24;;;;;;;31.37;18.83;;;12.20;99.90;;;;;;5033039;28;20438;-82
2023/02/18 02:24:17;;;;;;;28.03;17.93;;;12.30;99.90;;;;;;5034954;28;20553;-82
2023/02/18 02:26:52;;;;;;;27.00;19.37;;;12.20;99.90;;;;;;5036422;28;20433;-82
2023/02/18 02:29:40;;;;;;;22.97;17.50;;;12.10;99.90;;;;;;5040423;28;20512;-81
2023/02/18 02:32:22;;;;;;;21.73;17.10;;;12.20;99.90;;;;;;5044747;28;20492;-80
2023/02/18 02:34:56;;;;;;;26.90;18.23;;;12.20;99.90;;;;;;5041046;28;20433;-83
2023/02/18 02:37:45;;;;;;;24.60;17.00;;;12.30;99.90;;;;;;5039387;28;20446;-82
2023/02/18 02:40:16;;;;;;;28.60;18.73;;;12.40;99.90;;;;;;5038421;28;20421;-83
2023/02/18 02:43:24;;;;;;;24.40;16.20;;;12.20;99.90;;;;;;5036603;28;20440;-77
2023/02/18 02:45:54;;;;;;;24.60;15.87;;;12.30;99.90;;;;;;5036255;28;20528;-78
2023/02/18 02:48:42;;;;;;;22.97;16.63;;;12.20;99.90;;;;;;5037450;28;20426;-78
2023/02/18 02:51:55;;;;;;;24.90;15.17;;;12.30;99.90;;;;;;5044710;28;20792;-77
2023/02/18 02:54:26;;;;;;;25.80;16.97;;;12.30;99.90;;;;;;4990361;28;20519;-76
2023/02/18 02:57:23;;;;;;;23.47;15.80;;;12.30;99.90;;;;;;5043349;28;20437;-75
2023/02/18 02:59:54;;;;;;;31.60;16.57;;;12.30;99.90;;;;;;5001271;28;20434;-79
2023/02/18 03:02:22;;;;;;;20.43;15.10;;;12.20;99.90;;;;;;5046246;28;20445;-78
2023/02/18 03:04:57;;;;;;;21.10;14.23;;;12.30;99.90;;;;;;5044045;28;20470;-80
2023/02/18 03:07:43;;;;;;;19.10;13.20;;;12.30;99.90;;;;;;5041764;28;20472;-79
2023/02/18 03:10:21;;;;;;;17.23;11.60;;;12.30;99.90;;;;;;5037300;28;20441;-79
2023/02/18 03:13:19;;;;;;;15.73;12.53;;;12.30;99.90;;;;;;5038183;28;20424;-79
2023/02/18 03:16:02;;;;;;;16.17;11.27;;;12.40;99.90;;;;;;5011967;28;20810;-79
2023/02/18 03:18:34;;;;;;;14.03;10.80;;;12.30;99.90;;;;;;5038273;28;20425;-79
2023/02/18 03:21:07;;;;;;;15.10;10.00;;;12.30;99.90;;;;;;5042740;28;20551;-79
2023/02/18 03:23:43;;;;;;;14.50;10.57;;;12.30;99.90;;;;;;5038972;28;20500;-79
2023/02/18 03:26:10;;;;;;;13.90;10.83;;;12.40;99.90;;;;;;5042609;28;20440;-78
2023/02/18 03:28:37;;;;;;;14.60;8.50;;;12.40;99.90;;;;;;5045296;28;20479;-78
2023/02/18 03:31:14;;;;;;;16.90;11.97;;;12.40;99.90;;;;;;5041573;28;20477;-78
2023/02/18 03:33:55;;;;;;;12.40;8.90;;;12.20;99.90;;;;;;5042407;28;20494;-79
2023/02/18 03:36:22;;;;;;;16.00;11.37;;;12.20;99.90;;;;;;5040351;28;20422;-79
2023/02/18 03:38:55;;;;;;;11.80;9.23;;;12.30;99.90;;;;;;5038490;28;20418;-79
2023/02/18 05:31:32;;;;;;;4.13;2.90;;;11.90;99.90;;;;;;5565130;23;20579;-67
2023/02/18 05:33:57;;;;;;;4.40;3.00;;;11.90;99.90;;;;;;5071675;28;20516;-67
2023/02/18 05:36:24;;;;;;;4.10;3.03;;;11.80;99.90;;;;;;5066619;28;20293;-67
2023/02/18 05:38:50;;;;;;;3.07;2.70;;;11.80;99.90;;;;;;5058137;28;20528;-68
2023/02/18 05:41:15;;;;;;;2.17;1.97;;;11.90;99.90;;;;;;5060058;28;20198;-68
2023/02/18 05:46:25;;;;;;;2.70;2.20;;;11.90;99.90;;;;;;5063850;28;20189;-68
2023/02/18 05:48:50;;;;;;;3.83;2.40;;;11.90;99.90;;;;;;5065385;28;20437;-69
2023/02/18 05:51:16;;;;;;;3.60;2.30;;;11.90;99.90;;;;;;5066965;28;20261;-68
2023/02/18 05:53:42;;;;;;;2.50;1.87;;;11.80;99.90;;;;;;5068700;28;20182;-69
2023/02/18 05:56:07;;;;;;;1.93;1.70;;;11.80;99.90;;;;;;5070550;28;20182;-69
2023/02/18 05:58:33;;;;;;;2.30;2.07;;;11.80;99.90;;;;;;5054875;28;20227;-68
2023/02/18 06:00:58;;;;;;;2.57;2.37;;;11.70;99.90;;;;;;5071341;28;20186;-68
2023/02/18 06:03:24;;;;;;;2.63;2.43;;;11.80;99.90;;;;;;5069881;28;20178;-68
2023/02/18 06:05:50;;;;;;;2.33;1.93;;;11.80;99.90;;;;;;5068058;28;20218;-68
2023/02/18 06:08:16;;;;;;;2.37;2.03;;;11.70;99.90;;;;;;5066167;28;20220;-68
2023/02/18 06:10:41;;;;;;;2.63;1.87;;;11.80;99.90;;;;;;5064371;28;20460;-68
2023/02/18 06:13:07;;;;;;;1.83;1.63;;;11.70;99.90;;;;;;5062580;28;20204;-68
2023/02/18 06:15:33;;;;;;;4.33;2.07;;;11.80;99.90;;;;;;5060884;28;20179;-70
2023/02/18 06:17:58;;;;;;;3.17;2.10;;;11.70;99.90;;;;;;5059004;28;20214;-71
2023/02/18 06:20:24;;;;;;;2.17;1.97;;;11.70;99.90;;;;;;5056753;28;20629;-70
2023/02/18 06:22:49;;;;;;;1.60;1.47;;;11.70;99.90;;;;;;5055423;28;20618;-70
2023/02/18 06:25:15;;;;;;;2.83;1.90;;;11.70;99.90;;;;;;5071768;28;20681;-70
2023/02/18 06:27:40;;;;;;;2.33;1.83;;;11.70;99.90;;;;;;5071903;28;20629;-72
2023/02/18 06:30:06;;;;;;;3.00;1.70;;;11.80;99.90;;;;;;5070097;28;20182;-78
2023/02/18 06:32:32;;;;;;;2.30;1.90;;;11.70;99.90;;;;;;5066889;28;20218;-76
2023/02/18 06:34:57;;;;;;;3.20;2.10;;;11.70;99.90;;;;;;5065844;28;20441;-77
2023/02/18 06:37:23;;;;;;;1.93;1.53;;;11.70;99.90;;;;;;5061531;28;20506;-77
2023/02/18 06:39:48;;;;;;;2.77;1.80;;;11.70;99.90;;;;;;5060979;28;20182;-74
2023/02/18 06:42:14;;;;;;;1.80;1.70;;;11.70;99.90;;;;;;5063056;28;20178;-73
2023/02/18 06:44:40;;;;;;;3.07;1.93;;;11.70;99.90;;;;;;5064407;28;20320;-73
2023/02/18 06:47:06;;;;;;;1.97;1.60;;;11.70;99.90;;;;;;5061139;28;20233;-74
2023/02/18 06:49:31;;;;;;;3.50;2.20;;;11.60;99.90;;;;;;5054532;28;20638;-76
2023/02/18 06:51:57;;;;;;;2.37;2.13;;;11.60;99.90;;;;;;5052928;28;20429;-74
2023/02/18 06:54:23;;;;;;;2.60;1.80;;;11.60;99.90;;;;;;5053438;28;20175;-71
2023/02/18 06:56:49;;;;;;;2.50;2.00;;;11.70;99.90;;;;;;5068944;28;20202;-71
2023/02/18 06:59:15;;;;;;;2.30;1.97;;;11.70;99.90;;;;;;5067807;28;20487;-74
2023/02/18 07:01:40;;;;;;;3.47;2.37;;;11.70;99.90;;;;;;5065943;28;20515;-72
2023/02/18 07:04:06;;;;;;;2.27;2.07;;;11.70;99.90;;;;;;5063752;28;20594;-70
2023/02/18 07:06:32;;;;;;;2.17;1.90;;;11.80;99.90;;;;;;5062284;28;20222;-72
2023/02/18 07:08:57;;;;;;;2.13;1.87;;;11.70;99.90;;;;;;5060368;28;20183;-75
2023/02/18 07:11:23;;;;;;;2.20;2.00;;;11.70;99.90;;;;;;5058292;28;20179;-71
2023/02/18 07:13:48;;;;;;;2.30;2.00;;;11.70;99.90;;;;;;5056359;28;20224;-72
2023/02/18 07:16:14;;;;;;;2.57;2.37;;;11.80;99.90;;;;;;5065433;28;20170;-69
2023/02/18 07:18:39;;;;;;;3.47;2.50;;;11.60;99.90;;;;;;5068997;28;20591;-70
2023/02/18 07:21:05;;;;;;;2.93;2.20;;;11.60;99.90;;;;;;5070807;28;20179;-71
2023/02/18 07:23:31;;;;;;;3.37;2.37;;;11.60;99.90;;;;;;5069487;28;20668;-69
2023/02/18 07:26:08;;;;;;;3.10;2.83;;;11.60;99.90;;;;;;5067843;28;20211;-69
2023/02/18 07:28:33;;;;;;;3.30;2.37;;;11.70;99.90;;;;;;5064564;28;20231;-68
2023/02/18 07:31:00;;;;;;;3.40;2.53;;;11.70;99.90;;;;;;5057911;28;20469;-69
2023/02/18 07:33:26;;;;;;;4.40;2.37;;;11.60;99.90;;;;;;5062673;28;20440;-69
2023/02/18 07:35:59;;;;;;;2.47;2.17;;;11.60;99.90;;;;;;5065200;28;20437;-71
2023/02/18 07:38:26;;;;;;;2.93;2.57;;;11.60;99.90;;;;;;5066803;28;20255;-71
2023/02/18 07:40:53;;;;;;;3.80;2.70;;;11.70;99.90;;;;;;5069411;28;20440;-72
2023/02/18 07:43:19;;;;;;;3.93;2.87;;;11.70;99.90;;;;;;5058336;28;20795;-72
2023/02/18 07:45:44;;;;;;;3.40;2.33;;;11.70;99.90;;;;;;5056559;28;20476;-73
2023/02/18 07:48:10;;;;;;;2.77;2.10;;;11.70;99.90;;;;;;5055127;28;20215;-76
2023/02/18 07:50:42;;;;;;;3.20;2.20;;;11.60;99.90;;;;;;5057042;28;20278;-70
2023/02/18 07:53:09;;;;;;;5.80;2.80;;;11.60;99.90;;;;;;5057589;28;20178;-72
2023/02/18 07:55:48;;;;;;;4.07;2.10;;;11.50;99.90;;;;;;5059121;28;20937;-70
2023/02/18 07:58:21;;;;;;;2.73;2.53;;;11.60;99.90;;;;;;5061184;28;20428;-69
2023/02/18 08:00:48;;;;;;;4.03;2.57;;;11.50;99.90;;;;;;5062725;28;20784;-69
2023/02/18 08:03:18;;;;;;;5.80;3.00;;;11.40;99.90;;;;;;5064710;28;20424;-69
2023/02/18 08:05:44;;;;;;;3.43;2.57;;;11.50;99.90;;;;;;5066384;28;20924;-70
2023/02/18 08:08:16;;;;;;;3.90;2.47;;;11.40;99.90;;;;;;5068141;28;20516;-70
2023/02/18 08:10:42;;;;;;;2.93;2.20;;;11.40;99.90;;;;;;5069914;28;20927;-70
2023/02/18 08:13:09;;;;;;;2.33;2.10;;;11.50;99.90;;;;;;5071530;28;20431;-70
2023/02/18 08:15:35;;;;;;;3.40;2.53;;;11.40;99.90;;;;;;5073387;28;20459;-70
2023/02/18 08:18:01;;;;;;;4.40;2.43;;;11.40;99.90;;;;;;5071861;28;20519;-69
2023/02/18 08:20:27;;;;;;;2.80;1.70;;;11.50;99.90;;;;;;5070058;28;20515;-70
2023/02/18 08:22:52;;;;;;;3.80;1.90;;;11.50;99.90;;;;;;5068824;28;20287;-79
2023/02/18 08:25:18;;;;;;;2.10;1.80;;;11.60;99.90;;;;;;5066772;28;20507;-78
2023/02/18 08:27:43;;;;;;;2.00;1.40;;;11.60;99.90;;;;;;5064836;28;20261;-72
2023/02/18 08:30:09;;;;;;;1.60;1.23;;;11.60;99.90;;;;;;5063132;28;20185;-71
2023/02/18 08:32:35;;;;;;;2.23;1.60;;;11.60;99.90;;;;;;5061200;28;20339;-71
2023/02/18 08:35:01;;;;;;;1.40;1.30;;;11.60;99.90;;;;;;5059992;28;20440;-70
2023/02/18 08:37:27;;;;;;;3.50;1.27;;;11.60;99.90;;;;;;5060798;28;20213;-70
2023/02/18 08:39:53;;;;;;;1.17;0.93;;;11.70;99.90;;;;;;5070748;28;20874;-71
2023/02/18 08:42:18;;;;;;;1.93;1.30;;;11.70;99.90;;;;;;5072419;28;20181;-71
2023/02/18 08:44:44;;;;;;;1.70;1.33;;;11.60;99.90;;;;;;5071658;28;20218;-71
2023/02/18 08:47:10;;;;;;;1.70;1.60;;;11.60;99.90;;;;;;5070296;28;20178;-71
2023/02/18 08:49:35;;;;;;;1.37;1.20;;;11.60;99.90;;;;;;5068641;28;20712;-71
2023/02/18 08:52:02;;;;;;;1.97;1.07;;;11.70;99.90;;;;;;5066679;28;20265;-71
2023/02/18 08:54:28;;;;;;;3.00;2.40;;;11.70;99.90;;;;;;5064902;28;20187;-71
2023/02/18 08:56:56;;;;;;;2.13;0.90;;;11.70;99.90;;;;;;5063257;28;21028;-71
2023/02/18 08:59:24;;;;;;;2.60;0.90;;;11.70;99.90;;;;;;5061490;28;20615;-71
2023/02/18 09:01:50;;;;;;;2.50;1.47;;;11.70;99.90;;;;;;5059094;28;20469;-71
2023/02/18 09:04:16;;;;;;;3.63;1.30;;;11.70;99.90;;;;;;5057569;28;20505;-72
2023/02/18 09:06:42;;;;;;;1.73;1.57;;;11.50;99.90;;;;;;5055763;28;20206;-69
2023/02/18 09:09:09;;;;;;;2.47;1.80;;;11.50;99.90;;;;;;5053613;28;20453;-68
2023/02/18 09:11:35;;;;;;;1.77;1.63;;;11.50;99.90;;;;;;5053383;28;20190;-68
2023/02/18 09:14:01;;;;;;;6.17;2.30;;;11.50;99.90;;;;;;5054839;28;20465;-68
2023/02/18 09:16:28;;;;;;;6.73;2.27;;;11.50;99.90;;;;;;5058427;28;20433;-71
2023/02/18 09:18:54;;;;;;;2.33;2.13;;;11.50;99.90;;;;;;5057856;28;20437;-72
2023/02/18 09:21:22;;;;;;;2.83;2.50;;;11.40;99.90;;;;;;5060213;28;20498;-70
2023/02/18 09:23:48;;;;;;;4.40;2.27;;;11.30;99.90;;;;;;5061717;28;20831;-70
2023/02/18 09:26:15;;;;;;;4.70;2.53;;;11.30;99.90;;;;;;5063851;28;20446;-68
2023/02/18 09:28:41;;;;;;;6.17;3.23;;;11.30;99.90;;;;;;5063013;28;20182;-67
2023/02/18 09:31:12;;;;;;;7.45;3.00;;;11.20;99.90;;;;;;5056633;28;20514;-67
2023/02/18 09:33:40;;;;;;;12.30;4.03;;;11.20;99.90;;;;;;5069085;28;20277;-68
2023/02/18 09:36:06;;;;;;;8.70;3.17;;;11.30;99.90;;;;;;5071137;28;20929;-68
2023/02/18 09:38:32;;;;;;;4.07;2.53;;;11.30;99.90;;;;;;5060916;28;20456;-69
2023/02/18 09:41:01;;;;;;;6.00;2.63;;;11.30;99.90;;;;;;5053372;28;20932;-73
2023/02/18 09:43:30;;;;;;;7.33;2.93;;;11.30;99.90;;;;;;5056616;28;20456;-70
2023/02/18 09:45:57;;;;;;;7.87;2.70;;;11.30;99.90;;;;;;5063551;28;20809;-77
2023/02/18 09:48:28;;;;;;;7.73;2.70;;;11.30;99.90;;;;;;5064732;28;20429;-68
2023/02/18 09:50:54;;;;;;;5.70;2.60;;;11.40;99.90;;;;;;5061384;28;20440;-69
2023/02/18 09:53:22;;;;;;;5.70;3.03;;;11.20;99.90;;;;;;5063893;28;20521;-69
2023/02/18 09:55:49;;;;;;;5.37;3.57;;;11.20;99.90;;;;;;5064744;28;20436;-70
2023/02/18 09:58:19;;;;;;;6.80;5.00;;;11.20;99.90;;;;;;5049441;28;20464;-70
2023/02/18 10:01:19;;;;;;;6.20;3.10;;;11.30;99.90;;;;;;5069126;28;20430;-69
2023/02/18 10:03:44;;;;;;;3.30;3.00;;;11.30;99.90;;;;;;5025414;28;20444;-69
2023/02/18 10:06:24;;;;;;;9.27;5.03;;;11.20;99.90;;;;;;5055172;28;20499;-69
2023/02/18 10:08:52;;;;;;;6.53;3.00;;;11.30;99.90;;;;;;5052155;28;20546;-68
2023/02/18 10:11:41;;;;;;;4.70;3.50;;;11.40;99.90;;;;;;5065417;28;20440;-69
2023/02/18 10:14:12;;;;;;;9.73;3.67;;;11.30;99.90;;;;;;5065263;28;20428;-69
2023/02/18 10:16:38;;;;;;;9.40;4.30;;;11.20;99.90;;;;;;5063719;28;20436;-70
2023/02/18 10:19:11;;;;;;;7.57;4.33;;;11.20;99.90;;;;;;5061913;28;20934;-70
2023/02/18 10:21:37;;;;;;;11.30;3.93;;;11.20;99.90;;;;;;5061656;28;20182;-68
2023/02/18 10:24:13;;;;;;;9.30;3.97;;;11.20;99.90;;;;;;5062678;28;20463;-70
2023/02/18 10:26:39;;;;;;;7.40;4.00;;;11.30;99.90;;;;;;5064842;28;20945;-70
2023/02/18 10:29:15;;;;;;;5.90;3.90;;;11.30;99.90;;;;;;5058624;28;20463;-70
2023/02/18 10:31:49;;;;;;;5.70;3.40;;;11.30;99.90;;;;;;5061081;28;20456;-70
2023/02/18 10:34:23;;;;;;;8.97;4.10;;;11.30;99.90;;;;;;5054209;28;20428;-70
2023/02/18 10:36:56;;;;;;;11.47;4.57;;;11.30;99.90;;;;;;5058861;28;20506;-70
2023/02/18 10:39:40;;;;;;;18.97;4.83;;;11.40;99.90;;;;;;5057020;28;20425;-70
2023/02/18 10:42:31;;;;;;;10.07;3.67;;;11.30;99.90;;;;;;5058749;28;20895;-70
2023/02/18 10:45:22;;;;;;;9.87;4.13;;;11.40;99.90;;;;;;5061029;28;20482;-70
2023/02/18 10:48:17;;;;;;;6.60;3.70;;;11.40;99.90;;;;;;5062319;28;20482;-70
2023/02/18 10:50:44;;;;;;;11.03;3.80;;;11.30;99.90;;;;;;5065100;28;20435;-70
2023/02/18 10:53:11;;;;;;;10.30;3.90;;;11.30;99.90;;;;;;5060659;28;20498;-70
2023/02/18 10:55:43;;;;;;;9.50;3.70;;;11.30;99.90;;;;;;5057659;28;20430;-70
2023/02/18 10:58:31;;;;;;;15.83;4.40;;;11.20;99.90;;;;;;5056081;28;20441;-70
2023/02/18 11:00:57;;;;;;;5.03;3.30;;;11.10;99.90;;;;;;5064104;28;20432;-69
2023/02/18 11:03:35;;;;;;;9.03;4.10;;;11.10;99.90;;;;;;5060188;28;20436;-69
2023/02/18 11:06:00;;;;;;;10.83;4.23;;;11.10;99.90;;;;;;5061010;28;20476;-69
2023/02/18 11:08:41;;;;;;;9.57;4.83;;;11.10;99.90;;;;;;5066775;28;20953;-69
2023/02/18 11:11:22;;;;;;;5.07;3.33;;;11.20;99.90;;;;;;5065875;28;20178;-69
2023/02/18 11:13:53;;;;;;;10.87;4.47;;;11.20;99.90;;;;;;5065263;28;20981;-70
2023/02/18 11:16:22;;;;;;;5.83;3.50;;;11.10;99.90;;;;;;5068220;28;20441;-70
2023/02/18 11:18:48;;;;;;;12.90;4.13;;;11.10;99.90;;;;;;5062073;28;20463;-69
2023/02/18 11:21:28;;;;;;;7.80;3.90;;;11.10;99.90;;;;;;5051268;28;20441;-70
2023/02/18 11:23:54;;;;;;;12.20;4.40;;;11.10;99.90;;;;;;5063025;28;20171;-70
2023/02/18 11:26:31;;;;;;;7.40;4.00;;;11.10;99.90;;;;;;5060565;28;20472;-68
2023/02/18 11:29:03;;;;;;;9.27;4.23;;;11.00;99.90;;;;;;5059067;28;20436;-71
2023/02/18 11:31:43;;;;;;;4.90;4.40;;;11.00;99.90;;;;;;5060697;28;20476;-70
2023/02/18 11:34:22;;;;;;;9.63;5.13;;;11.00;99.90;;;;;;5062658;28;20433;-70
2023/02/18 11:36:49;;;;;;;11.30;6.30;;;11.00;99.90;;;;;;5066718;28;20523;-71
2023/02/18 11:39:27;;;;;;;8.47;4.33;;;10.90;99.90;;;;;;5070054;28;20429;-70
2023/02/18 11:41:54;;;;;;;11.43;3.87;;;10.90;99.90;;;;;;5070916;28;20498;-70
2023/02/18 11:44:33;;;;;;;4.93;3.80;;;10.90;99.90;;;;;;5065881;28;20450;-71
2023/02/18 11:47:05;;;;;;;6.23;3.60;;;11.10;99.90;;;;;;5065259;28;21231;-70
2023/02/18 11:49:33;;;;;;;6.40;3.40;;;11.10;99.90;;;;;;5060658;28;20507;-71
2023/02/18 11:52:09;;;;;;;5.63;3.07;;;11.00;99.90;;;;;;5062521;28;20432;-70
2023/02/18 11:54:35;;;;;;;4.70;2.90;;;11.00;99.90;;;;;;5061409;28;20452;-74
2023/02/18 11:57:04;;;;;;;9.93;3.47;;;11.00;99.90;;;;;;5060826;28;20464;-72
2023/02/18 11:59:33;;;;;;;3.83;3.10;;;11.10;99.90;;;;;;5061942;28;20179;-73
2023/02/18 12:02:08;;;;;;;6.80;3.70;;;11.00;99.90;;;;;;5053174;28;20429;-74
2023/02/18 12:04:44;;;;;;;6.70;3.47;;;11.00;99.90;;;;;;5048054;28;20443;-73
2023/02/18 12:07:22;;;;;;;5.07;3.50;;;11.00;99.90;;;;;;5066015;28;20452;-71
2023/02/18 12:09:53;;;;;;;9.50;4.40;;;11.10;99.90;;;;;;5066309;28;20985;-73
2023/02/18 12:12:29;;;;;;;6.20;4.50;;;11.00;99.90;;;;;;5066868;28;20433;-72
2023/02/18 12:14:55;;;;;;;5.30;4.10;;;11.00;99.90;;;;;;5064777;28;20440;-68
2023/02/18 12:18:07;;;;;;;8.60;4.10;;;11.10;99.90;;;;;;5059815;28;20763;-71
2023/02/18 12:20:57;;;;;;;4.47;3.90;;;11.10;99.90;;;;;;5028137;28;20948;-72
2023/02/18 12:23:34;;;;;;;7.50;4.77;;;11.10;99.90;;;;;;5069371;28;20429;-72
2023/02/18 12:26:33;;;;;;;5.90;4.27;;;11.20;99.90;;;;;;5061189;28;20495;-71
2023/02/18 12:29:39;;;;;;;8.53;4.30;;;11.10;99.90;;;;;;5063058;28;20433;-72
2023/02/18 12:32:31;;;;;;;7.70;4.17;;;10.90;99.90;;;;;;5031729;28;20475;-73
2023/02/18 12:35:25;;;;;;;6.13;4.20;;;11.10;99.90;;;;;;5049910;28;20439;-71
2023/02/18 12:38:20;;;;;;;9.83;5.33;;;11.00;99.90;;;;;;5062292;28;20426;-71
2023/02/18 12:41:05;;;;;;;6.70;4.50;;;11.00;99.90;;;;;;5063740;28;20460;-72
2023/02/18 12:43:49;;;;;;;8.00;4.90;;;11.00;99.90;;;;;;5067621;28;20510;-72
2023/02/18 12:46:33;;;;;;;9.67;4.67;;;11.10;99.90;;;;;;5056778;28;20433;-71
2023/02/18 12:49:29;;;;;;;6.90;5.13;;;11.20;99.90;;;;;;5056215;28;20434;-71
2023/02/18 12:52:16;;;;;;;7.70;5.70;;;11.20;99.90;;;;;;5055194;28;20550;-71
2023/02/18 12:55:27;;;;;;;13.53;6.67;;;11.00;99.90;;;;;;5067015;28;20511;-71
2023/02/18 12:58:13;;;;;;;8.60;5.83;;;11.10;99.90;;;;;;4987411;28;20451;-71
2023/02/18 13:00:52;;;;;;;7.97;6.20;;;11.10;99.90;;;;;;5059497;28;20778;-72
2023/02/18 13:03:41;;;;;;;8.03;6.50;;;11.00;99.90;;;;;;5062222;28;20948;-70
2023/02/18 13:06:19;;;;;;;9.40;6.20;;;11.00;99.90;;;;;;5061273;28;20472;-70
2023/02/18 13:09:16;;;;;;;13.13;5.10;;;11.00;99.90;;;;;;5062290;28;20512;-71
2023/02/18 13:11:41;;;;;;;8.90;6.90;;;11.00;99.90;;;;;;5060739;28;20444;-71
2023/02/18 13:14:17;;;;;;;9.13;6.27;;;11.20;99.90;;;;;;5067531;28;20484;-73
2023/02/18 13:16:47;;;;;;;9.20;6.20;;;11.20;99.90;;;;;;5055322;28;20174;-73
2023/02/18 13:19:24;;;;;;;8.20;6.13;;;11.30;99.90;;;;;;5056577;28;20483;-70
2023/02/18 13:21:54;;;;;;;9.20;7.13;;;11.30;99.90;;;;;;5056159;28;20483;-72
2023/02/18 13:24:26;;;;;;;9.20;6.87;;;11.30;99.90;;;;;;5058061;28;20888;-71
2023/02/18 13:26:57;;;;;;;8.47;6.67;;;11.20;99.90;;;;;;5065092;28;20460;-70
2023/02/18 13:29:30;;;;;;;10.00;8.47;;;11.20;99.90;;;;;;5063366;28;20431;-73
2023/02/18 13:32:10;;;;;;;14.83;9.13;;;11.40;99.90;;;;;;5063854;28;20509;-74
2023/02/18 13:34:42;;;;;;;13.40;9.77;;;11.40;99.90;;;;;;5060201;28;20433;-76
2023/02/18 13:37:34;;;;;;;12.20;7.77;;;11.40;99.90;;;;;;5067404;28;20516;-74
2023/02/18 13:40:01;;;;;;;9.27;7.70;;;11.30;99.90;;;;;;5059101;28;20440;-71
2023/02/18 13:42:29;;;;;;;10.13;7.53;;;11.40;99.90;;;;;;5053932;28;20520;-72
2023/02/18 13:44:55;;;;;;;14.80;8.63;;;11.40;99.90;;;;;;5059487;28;20988;-72
2023/02/18 13:47:43;;;;;;;9.23;7.10;;;11.40;99.90;;;;;;5057179;28;20452;-72
2023/02/18 13:50:21;;;;;;;9.50;7.63;;;11.40;99.90;;;;;;5058543;28;20532;-72
2023/02/18 13:52:59;;;;;;;7.90;6.47;;;11.30;99.90;;;;;;5062713;28;20464;-73
2023/02/18 13:55:37;;;;;;;10.20;7.07;;;11.40;99.90;;;;;;5064819;28;20585;-72
2023/02/18 13:58:04;;;;;;;13.10;7.20;;;11.30;99.90;;;;;;5063335;28;20428;-72
2023/02/18 14:00:40;;;;;;;10.50;8.00;;;11.30;99.90;;;;;;5065080;28;20444;-72
2023/02/18 14:03:35;;;;;;;8.43;7.40;;;11.30;99.90;;;;;;5059070;28;20778;-72
2023/02/18 14:06:01;;;;;;;10.17;7.43;;;11.40;99.90;;;;;;5067835;28;20472;-72
2023/02/18 14:08:35;;;;;;;6.63;5.77;;;11.40;99.90;;;;;;5071462;28;20500;-72
2023/02/18 14:11:10;;;;;;;11.03;7.43;;;11.40;99.90;;;;;;5072716;28;20439;-72
2023/02/18 14:13:45;;;;;;;10.03;7.80;;;11.50;99.90;;;;;;5071416;28;20417;-72
2023/02/18 14:16:11;;;;;;;13.73;8.60;;;11.40;99.90;;;;;;5069811;28;20542;-72
2023/02/18 14:18:39;;;;;;;9.63;7.73;;;11.40;99.90;;;;;;5066370;28;20788;-72
2023/02/18 14:21:11;;;;;;;12.20;8.33;;;11.50;99.90;;;;;;5064223;28;20275;-72
2023/02/18 14:23:39;;;;;;;12.97;6.97;;;11.50;99.90;;;;;;5060700;28;20425;-72
2023/02/18 14:26:08;;;;;;;12.07;8.73;;;11.60;99.90;;;;;;5061923;28;21194;-72
2023/02/18 14:28:33;;;;;;;16.40;10.07;;;11.50;99.90;;;;;;5064455;28;20529;-72
2023/02/18 14:31:02;;;;;;;13.97;9.90;;;11.50;99.90;;;;;;5057007;28;20465;-72
2023/02/18 14:33:33;;;;;;;16.80;9.27;;;11.40;99.90;;;;;;5056162;28;20183;-72
2023/02/18 14:36:14;;;;;;;14.90;10.67;;;11.40;99.90;;;;;;5071045;28;20457;-72
2023/02/18 14:38:54;;;;;;;19.60;11.27;;;11.40;99.90;;;;;;5072136;28;20436;-72
2023/02/18 14:41:37;;;;;;;19.83;12.50;;;11.40;99.90;;;;;;5056117;28;20435;-72
2023/02/18 14:44:20;;;;;;;19.90;11.50;;;11.40;99.90;;;;;;5060845;28;20510;-72
2023/02/18 14:47:01;;;;;;;18.90;13.50;;;11.50;99.90;;;;;;5062770;28;20928;-72
2023/02/18 14:49:41;;;;;;;20.73;13.73;;;11.40;99.90;;;;;;5064511;28;20507;-72
2023/02/18 14:52:18;;;;;;;24.43;15.17;;;11.50;99.90;;;;;;5066774;28;20463;-72
2023/02/18 14:54:45;;;;;;;22.73;15.23;;;11.60;99.90;;;;;;5068101;28;20451;-72
2023/02/18 14:57:17;;;;;;;21.73;16.00;;;11.60;99.90;;;;;;5070261;28;20871;-72
2023/02/18 14:59:44;;;;;;;29.80;16.97;;;11.60;99.90;;;;;;5064414;28;20899;-72